Station info - map view · info · telemetry · weather · raw · status · beacons · messages · bulletins · browse · moving · my account
Callsign, ship name or locator: Clear       
It is possible to search using wildcards (*?) after a prefix. Example: OH*
APRS station KG5KIF-9 - show graphs
Map loading...
Comment: 444.475MHz T088 +500 Monitoring
Mic-E message: En route
Location: 35°11.21' N 101°56.64' W - locator DM95AE64RU - show map - static map
6.8 miles West bearing 249° from Amarillo, Potter County, Texas, United States [?]
6.8 miles East bearing 93° from Bushland, Potter County, Texas, United States
89.6 miles Northeast bearing 53° from Clovis, Curry County, New Mexico, United States
Last position: 2017-01-19 19:53:45 EST (2d 17h26m ago)
2017-01-19 18:53:45 CST local time at Amarillo, United States [?]
Altitude: 3701 ft
Course: 96°
Speed: 22 MPH
Device: Yaesu: FTM-400DR (rig)
Last path: KG5KIF-9>SU1QRQ via WIDE1-1,WIDE2-1,qAR,KE5KUL (good)
Positions stored: 2518
Packet rate: 191 seconds between packets on average during 9573 seconds.
Other SSIDs: KG5KIF KG5KIF-10
Stations near current position of KG5KIF-9 - show more
callsign distance last heard - EST      callsign distance last heard - EST
WA8YYE-50.4 miles 85°2016-12-24 11:27:53 EW89170.6 miles 141°2017-01-22 13:17:04
444.475TX1.1 miles 212°2017-01-22 12:45:57 147.34WTX1.1 miles 212°2017-01-22 13:05:57
KE5KUL-51.1 miles 166°2017-01-16 13:07:30 KC5JIF1.2 miles 148°2017-01-22 13:00:52
KG5NKD1.3 miles 158°2017-01-21 11:23:55 KC5BPA-101.3 miles 97°2017-01-06 19:28:30
KF5CBT-22.5 miles 107°2017-01-11 12:53:01 K5WRW-WX3.4 miles 142°2017-01-22 13:20:24
K5WRW3.4 miles 142°2017-01-13 18:48:06 KA4TMB-93.6 miles 138°2017-01-22 13:03:32
BikeMS3.8 miles 92°2017-01-21 22:58:41 EW28873.8 miles 325°2017-01-22 13:18:06
KE5KUL-43.9 miles 134°2017-01-21 21:43:19 AMA394.0 miles 75°2017-01-22 13:10:20
KE5KUL4.1 miles 131°2017-01-22 13:02:32 KG5KIF-104.4 miles 23°2017-01-22 13:08:13
DW56624.6 miles 319°2017-01-22 13:18:11 KC5EZO-54.8 miles 178°2016-12-28 11:56:17
Stations which heard KG5KIF-9 directly on radio –
callsign pkts first heard - EST last heard longest (tx => rx) longest at - EST
TUCARI 21 2017-01-17 12:00:22 2017-01-19 18:58:58 DM85KE > DM85DD 32.9 miles 266° 2017-01-19 18:58:58
RAVEN 3 2017-01-17 13:57:51 2017-01-19 16:53:27 DM75CA > DM64TX 31.0 miles 268° 2017-01-17 13:57:51
SANDIA 12 2017-01-17 13:43:56 2017-01-19 16:49:23 DM75GA > DM65SF 56.5 miles 285° 2017-01-17 13:43:56
KE5KUL 11 2017-01-17 10:29:08 2017-01-19 19:53:45 DM85XE > DM95BD 10.8 miles 106° 2017-01-17 11:07:50
CAPTAN 2 2017-01-17 13:02:16 2017-01-17 13:07:01 DM74RX > DM73HO 104.5 miles 205° 2017-01-17 13:02:16
CAPILA 5 2017-01-17 13:37:52 2017-01-19 17:10:10 DM74HX > DM64TQ 63.3 miles 251° 2017-01-17 13:37:52
TESQUE 26 2017-01-17 12:53:55 2017-01-19 17:57:40 DM75TA > DM75CS 93.3 miles 304° 2017-01-17 12:53:55
TAPIA 7 2017-01-17 13:21:26 2017-01-19 17:32:24 DM74MX > DM75EC 39.5 miles 283° 2017-01-19 17:32:24
ELKMTN 27 2017-01-17 12:35:46 2017-01-19 18:32:40 DM85DE > DM75FS 113.5 miles 292° 2017-01-19 18:32:40
W5AOX-10 12 2017-01-17 14:03:56 2017-01-19 16:47:21 DM75AA > DM65TD 25.5 miles 294° 2017-01-17 14:03:56
K5MTS 2 2017-01-17 14:22:17 2017-01-19 16:27:41 DM65UC > DM65TA 7.7 miles 186° 2017-01-17 14:22:17
GRULKY 9 2017-01-17 11:34:11 2017-01-19 19:43:43 DM85WE > DM85OG 34.8 miles 276° 2017-01-19 19:43:43
KM5VY-10 6 2017-01-17 13:53:46 2017-01-19 16:57:28 DM75DA > DM64UX 33.8 miles 265° 2017-01-17 13:53:46
AMANE 6 2017-01-17 10:16:02 2017-01-17 10:26:49 DM95DH > DM95CF 7.3 miles 234° 2017-01-17 10:16:02
K5RHD-10 1 2017-01-17 14:28:49 2017-01-17 14:28:49 DM65SB > DM65PC 15.7 miles 282° 2017-01-17 14:28:49
GALPK 1 2017-01-19 17:36:26 2017-01-19 17:36:26 DM74NX > DM74CF 72.8 miles 227° 2017-01-19 17:36:26
KD5K-10 2 2017-01-17 14:30:50 2017-01-17 14:32:51 DM65RC > DM65RB 2.6 miles 159° 2017-01-17 14:32:51

Only position packets which were originated by the station are shown here. The range statistics show some extra long hops, because some digipeaters do not correctly add themselves to the digipeater path. Please check the raw packets.
About this site
This page shows real-time information collected from the Automatic Position Reporting System Internet network (APRS-IS). APRS is used by amateur (ham) radio operators to transmit real-time position information, weather data, telemetry and messages over the radio. A vehicle equipped with a GPS receiver, a VHF transmitter or HF transceiver and a small computer device called a tracker transmits it's location, speed and course in a small data packet, which is then received by a nearby iGate receiving site which forwards the packet on the Internet. Systems connected to the Internet can send information on the APRS-IS without a radio transmitter, or collect and display information transmitted anywhere in the world.
FAQ · Blog · Discussion group · Linking to aprs.fi · AIS sites · Service status · Database statistics · Advertising on aprs.fi · Technical details · API · Change log · Planned changes · Credits and thanks · Terms Of Service · iPhone/iPad APRS